createdAt,value
2022-11-29T00:00:15.387Z,88.01
2022-11-29T00:02:20.051Z,88.39
2022-11-29T00:04:24.818Z,88.22
2022-11-29T00:06:30.847Z,88.56
2022-11-29T00:08:36.029Z,88.42
2022-11-29T00:10:40.652Z,88.31
2022-11-29T00:12:46.343Z,88.56
2022-11-29T00:14:51.000Z,88.24
2022-11-29T00:16:57.205Z,88.39
2022-11-29T00:19:02.201Z,88.71
2022-11-29T00:21:09.102Z,88.63
2022-11-29T00:23:13.713Z,88.62
2022-11-29T00:25:18.292Z,88.81
2022-11-29T00:27:22.970Z,88.65
2022-11-29T00:29:29.356Z,88.85
2022-11-29T00:31:34.618Z,88.98
2022-11-29T00:33:39.256Z,88.61
2022-11-29T00:35:43.931Z,88.97
2022-11-29T00:37:51.430Z,88.88
2022-11-29T00:39:56.122Z,88.79
2022-11-29T00:42:00.739Z,88.76
2022-11-29T00:44:05.492Z,89.08
2022-11-29T00:46:10.517Z,89.05
2022-11-29T00:48:15.279Z,89.01
2022-11-29T00:50:20.384Z,89.00
2022-11-29T00:52:24.964Z,89.13
2022-11-29T00:54:29.683Z,89.10
2022-11-29T00:56:34.308Z,88.82
2022-11-29T00:58:38.975Z,89.10
2022-11-29T01:00:43.904Z,88.80
2022-11-29T01:02:48.521Z,88.88
2022-11-29T01:04:54.346Z,88.96
2022-11-29T01:06:59.051Z,88.79
2022-11-29T01:09:04.120Z,88.67
2022-11-29T01:11:13.050Z,88.51
2022-11-29T01:13:17.723Z,88.25
2022-11-29T01:15:22.720Z,88.28
2022-11-29T01:17:27.323Z,88.63
2022-11-29T01:19:31.947Z,88.53
2022-11-29T01:21:36.627Z,88.63
2022-11-29T01:23:41.709Z,88.81
2022-11-29T01:25:46.491Z,88.63
2022-11-29T01:27:51.082Z,88.80
2022-11-29T01:29:55.681Z,88.76
2022-11-29T01:32:00.296Z,88.73
2022-11-29T01:34:06.372Z,88.83
2022-11-29T01:36:12.978Z,88.74
2022-11-29T01:38:17.794Z,88.70
2022-11-29T01:40:22.437Z,88.67
2022-11-29T01:42:27.132Z,88.75
2022-11-29T01:45:02.739Z,88.61
2022-11-29T01:47:10.224Z,88.59
2022-11-29T01:49:18.698Z,88.78
2022-11-29T01:51:24.379Z,88.75
2022-11-29T01:53:29.284Z,88.69
2022-11-29T01:55:37.375Z,88.81
2022-11-29T01:57:43.885Z,88.88
2022-11-29T01:59:52.324Z,88.72
2022-11-29T02:02:04.682Z,88.57
2022-11-29T02:04:09.742Z,88.70
2022-11-29T02:06:15.795Z,88.72
2022-11-29T02:08:25.058Z,88.76
2022-11-29T02:10:37.689Z,88.78
2022-11-29T02:12:56.941Z,88.66
2022-11-29T02:15:25.068Z,88.77
2022-11-29T02:17:35.774Z,88.72
2022-11-29T02:20:03.034Z,88.76
2022-11-29T02:22:12.093Z,88.72
2022-11-29T02:24:41.297Z,88.63
2022-11-29T02:27:16.774Z,88.95
2022-11-29T02:29:42.065Z,88.93
2022-11-29T02:32:10.337Z,88.72
2022-11-29T02:34:35.067Z,88.91
2022-11-29T02:36:57.013Z,88.91
2022-11-29T02:39:49.486Z,89.04
2022-11-29T02:42:16.273Z,89.21
2022-11-29T02:44:48.862Z,89.15
2022-11-29T02:47:08.945Z,89.22
2022-11-29T02:49:21.563Z,89.51
2022-11-29T02:51:32.701Z,89.48
2022-11-29T02:53:44.626Z,89.53
2022-11-29T02:55:56.793Z,89.51
2022-11-29T02:58:09.535Z,89.67
2022-11-29T03:00:18.177Z,89.71
2022-11-29T03:02:32.657Z,89.82
2022-11-29T03:04:43.848Z,89.76
2022-11-29T03:06:57.268Z,89.47
2022-11-29T03:09:07.901Z,89.91
2022-11-29T03:11:20.540Z,89.78
2022-11-29T03:13:36.357Z,89.67
2022-11-29T03:15:48.155Z,89.63
2022-11-29T03:18:03.090Z,89.94
2022-11-29T03:20:25.814Z,89.75
2022-11-29T03:22:42.978Z,89.68
2022-11-29T03:24:54.565Z,89.68
2022-11-29T03:27:03.574Z,89.61
2022-11-29T03:29:11.866Z,89.67
2022-11-29T03:31:25.944Z,89.59
2022-11-29T03:33:38.915Z,89.55
2022-11-29T03:35:47.872Z,89.52
2022-11-29T03:37:58.614Z,89.55
2022-11-29T03:40:07.876Z,89.50
2022-11-29T03:42:18.620Z,89.28
2022-11-29T03:44:27.855Z,89.44
2022-11-29T03:46:38.013Z,89.40
2022-11-29T03:48:48.738Z,89.15
2022-11-29T03:50:57.307Z,89.15
2022-11-29T03:53:13.743Z,89.19
2022-11-29T03:55:46.410Z,89.37
2022-11-29T03:58:03.011Z,89.56
2022-11-29T04:00:11.061Z,89.44
2022-11-29T04:02:45.910Z,89.31
2022-11-29T04:05:36.050Z,89.07
2022-11-29T04:08:04.372Z,89.13
2022-11-29T04:10:20.464Z,89.02
2022-11-29T04:12:47.521Z,89.19
2022-11-29T04:15:17.277Z,88.87
2022-11-29T04:18:00.696Z,89.16
2022-11-29T04:20:48.158Z,89.18
2022-11-29T04:23:31.349Z,88.92
2022-11-29T04:25:48.572Z,89.08
2022-11-29T04:28:20.303Z,88.80
2022-11-29T04:30:25.897Z,88.99
2022-11-29T04:33:11.090Z,88.93
2022-11-29T04:35:38.537Z,88.84
2022-11-29T04:38:15.940Z,88.78
2022-11-29T04:40:41.006Z,88.97
2022-11-29T04:43:17.712Z,88.77
2022-11-29T04:45:59.410Z,88.66
2022-11-29T04:48:18.229Z,88.79
2022-11-29T04:50:49.570Z,88.96
2022-11-29T04:53:16.574Z,89.02
2022-11-29T04:55:37.075Z,89.39
2022-11-29T04:57:51.453Z,89.95
2022-11-29T05:00:05.650Z,89.92
2022-11-29T05:02:17.545Z,90.00
2022-11-29T05:04:29.649Z,90.53
2022-11-29T05:06:42.330Z,90.84
2022-11-29T05:08:56.128Z,91.03
2022-11-29T05:11:12.107Z,91.30
2022-11-29T05:13:23.737Z,91.68
2022-11-29T05:15:49.835Z,91.84
2022-11-29T05:18:04.048Z,92.00
2022-11-29T05:20:22.885Z,92.19
2022-11-29T05:22:33.131Z,92.84
2022-11-29T05:24:53.537Z,92.77
2022-11-29T05:27:08.561Z,93.06
2022-11-29T05:29:20.572Z,93.47
2022-11-29T05:31:40.689Z,93.29
2022-11-29T05:34:15.243Z,93.35
2022-11-29T05:36:29.505Z,93.62
2022-11-29T05:38:43.854Z,93.59
2022-11-29T05:41:02.690Z,93.41
2022-11-29T05:43:22.827Z,93.57
2022-11-29T05:45:33.188Z,93.86
2022-11-29T05:47:46.766Z,93.78
2022-11-29T05:50:05.640Z,94.10
2022-11-29T05:52:24.583Z,94.23
2022-11-29T05:54:34.337Z,94.48
2022-11-29T05:56:48.444Z,94.33
2022-11-29T05:58:58.421Z,94.38
2022-11-29T06:01:14.208Z,94.52
2022-11-29T06:03:24.758Z,94.90
2022-11-29T06:05:35.071Z,94.80
2022-11-29T06:07:45.246Z,94.77
2022-11-29T06:10:01.365Z,95.03
2022-11-29T06:12:18.163Z,94.89
2022-11-29T06:14:45.447Z,94.86
2022-11-29T06:17:08.708Z,94.91
2022-11-29T06:19:49.374Z,94.96
2022-11-29T06:22:07.548Z,95.26
2022-11-29T06:24:34.942Z,95.16
2022-11-29T06:26:57.628Z,95.43
2022-11-29T06:29:21.918Z,95.09
2022-11-29T06:31:32.137Z,95.10
2022-11-29T06:33:44.423Z,95.37
2022-11-29T06:35:57.452Z,95.44
2022-11-29T06:38:09.093Z,95.61
2022-11-29T06:40:16.289Z,95.61
2022-11-29T06:42:20.848Z,95.34
2022-11-29T06:44:26.413Z,95.81
2022-11-29T06:46:43.523Z,95.46
2022-11-29T06:48:56.597Z,95.27
2022-11-29T06:51:14.360Z,95.30
2022-11-29T06:53:29.623Z,95.12
2022-11-29T06:55:44.342Z,95.60
2022-11-29T06:58:05.687Z,95.53
2022-11-29T07:00:16.320Z,95.65
2022-11-29T07:02:34.522Z,95.47
2022-11-29T07:04:54.414Z,95.33
2022-11-29T07:06:59.938Z,95.34
2022-11-29T07:09:13.203Z,95.25
2022-11-29T07:11:18.229Z,94.95
2022-11-29T07:13:23.893Z,95.12
2022-11-29T07:15:29.587Z,94.68
2022-11-29T07:17:42.590Z,94.98
2022-11-29T07:19:54.828Z,94.80
2022-11-29T07:22:05.907Z,94.52
2022-11-29T07:24:25.347Z,93.92
2022-11-29T07:26:35.174Z,94.08
2022-11-29T07:28:54.941Z,94.14
2022-11-29T07:31:05.146Z,94.04
2022-11-29T07:33:18.940Z,93.75
2022-11-29T07:35:33.586Z,93.59
2022-11-29T07:37:50.075Z,93.32
2022-11-29T07:40:01.675Z,93.63
2022-11-29T07:42:15.190Z,93.35
2022-11-29T07:44:28.531Z,93.39
2022-11-29T07:46:33.137Z,92.70
2022-11-29T07:48:37.901Z,92.88
2022-11-29T07:50:42.793Z,92.49
2022-11-29T07:52:47.764Z,92.53
2022-11-29T07:54:52.388Z,92.60
2022-11-29T07:56:57.019Z,92.10
2022-11-29T07:59:01.717Z,92.09
2022-11-29T08:01:06.714Z,92.07
2022-11-29T08:03:11.903Z,91.54
2022-11-29T08:05:17.051Z,91.59
2022-11-29T08:07:21.704Z,91.63
2022-11-29T08:09:26.327Z,91.21
2022-11-29T08:11:30.960Z,91.17
2022-11-29T08:13:35.573Z,91.17
2022-11-29T08:15:45.283Z,90.76
2022-11-29T08:17:52.319Z,90.89
2022-11-29T08:20:00.025Z,90.89
2022-11-29T08:22:08.510Z,90.92
2022-11-29T08:24:13.466Z,90.88
2022-11-29T08:26:20.435Z,90.72
2022-11-29T08:28:25.042Z,90.73
2022-11-29T08:30:31.085Z,90.61
2022-11-29T08:32:38.573Z,90.08
2022-11-29T08:34:43.432Z,89.79
2022-11-29T08:36:48.507Z,89.46
2022-11-29T08:39:01.265Z,89.34
2022-11-29T08:41:10.055Z,89.66
2022-11-29T08:43:14.931Z,89.12
2022-11-29T08:45:19.720Z,89.70
2022-11-29T08:47:24.314Z,89.33
2022-11-29T08:49:28.996Z,88.94
2022-11-29T08:51:33.585Z,89.02
2022-11-29T08:53:38.274Z,89.43
2022-11-29T08:55:43.299Z,88.84
2022-11-29T08:57:48.284Z,88.55
2022-11-29T08:59:52.936Z,88.14
2022-11-29T09:01:57.630Z,88.25
2022-11-29T09:04:02.259Z,88.13
2022-11-29T09:06:13.005Z,88.09
2022-11-29T09:08:17.864Z,88.15
2022-11-29T09:10:22.588Z,87.75
2022-11-29T09:12:27.244Z,87.01
2022-11-29T09:14:31.861Z,87.23
2022-11-29T09:16:38.348Z,87.35
2022-11-29T09:18:48.547Z,87.49
2022-11-29T09:20:55.910Z,87.38
2022-11-29T09:23:01.549Z,87.70
2022-11-29T09:25:07.337Z,87.29
2022-11-29T09:27:11.978Z,86.94
2022-11-29T09:29:18.093Z,87.07
2022-11-29T09:31:22.800Z,87.07
2022-11-29T09:33:27.526Z,87.13
2022-11-29T09:35:32.591Z,86.84
2022-11-29T09:37:37.250Z,87.01
2022-11-29T09:39:42.294Z,86.85
2022-11-29T09:42:12.486Z,86.73
2022-11-29T09:44:21.916Z,86.77
2022-11-29T09:46:38.463Z,86.03
2022-11-29T09:49:04.611Z,86.20
2022-11-29T09:51:22.395Z,86.26
2022-11-29T09:53:40.524Z,85.97
2022-11-29T09:55:59.922Z,85.63
2022-11-29T09:58:06.028Z,85.72
2022-11-29T10:00:18.037Z,85.19
2022-11-29T10:02:30.336Z,85.27
2022-11-29T10:04:41.302Z,84.81
2022-11-29T10:06:50.218Z,84.93
2022-11-29T10:08:59.413Z,84.68
2022-11-29T10:11:15.875Z,84.34
2022-11-29T10:13:24.079Z,84.01
2022-11-29T10:15:30.790Z,83.90
2022-11-29T10:17:39.016Z,84.23
2022-11-29T10:19:48.007Z,84.04
2022-11-29T10:22:00.703Z,83.97
2022-11-29T10:24:11.080Z,83.92
2022-11-29T10:26:16.342Z,83.11
2022-11-29T10:28:23.919Z,83.62
2022-11-29T10:30:28.652Z,83.64
2022-11-29T10:32:33.804Z,82.84
2022-11-29T10:34:39.139Z,83.05
2022-11-29T10:36:46.613Z,83.10
2022-11-29T10:38:53.658Z,82.65
2022-11-29T10:41:04.146Z,82.71
2022-11-29T10:43:08.886Z,82.67
2022-11-29T10:45:22.662Z,83.74
2022-11-29T10:47:27.521Z,83.38
2022-11-29T10:49:36.134Z,82.46
2022-11-29T10:51:40.995Z,81.71
2022-11-29T10:53:46.310Z,82.13
2022-11-29T10:55:55.173Z,82.29
2022-11-29T10:58:14.838Z,82.30
2022-11-29T11:00:20.193Z,81.54
2022-11-29T11:02:25.033Z,80.75
2022-11-29T11:04:33.543Z,80.67
2022-11-29T11:06:49.958Z,80.40
2022-11-29T11:08:56.860Z,80.12
2022-11-29T11:11:03.107Z,80.66
2022-11-29T11:13:20.657Z,80.64
2022-11-29T11:15:31.498Z,81.05
2022-11-29T11:17:36.097Z,80.44
2022-11-29T11:19:40.960Z,81.01
2022-11-29T11:21:45.633Z,81.21
2022-11-29T11:23:57.684Z,81.41
2022-11-29T11:26:05.219Z,81.37
2022-11-29T11:28:23.674Z,81.64
2022-11-29T11:30:30.134Z,82.01
2022-11-29T11:32:35.157Z,81.68
2022-11-29T11:34:50.247Z,82.38
2022-11-29T11:37:10.968Z,82.29
2022-11-29T11:39:22.690Z,82.39
2022-11-29T11:41:29.886Z,82.20
2022-11-29T11:43:35.433Z,81.45
2022-11-29T11:45:40.072Z,81.57
2022-11-29T11:47:47.533Z,81.76
2022-11-29T11:50:04.167Z,81.85
2022-11-29T11:52:16.618Z,81.80
2022-11-29T11:54:21.769Z,81.44
2022-11-29T11:56:33.577Z,81.06
2022-11-29T11:58:45.252Z,81.37
2022-11-29T12:01:08.637Z,81.33
2022-11-29T12:03:26.461Z,80.51
2022-11-29T12:05:31.213Z,80.93
2022-11-29T12:08:06.765Z,80.93
2022-11-29T12:10:14.890Z,81.17
2022-11-29T12:12:23.763Z,80.85
2022-11-29T12:14:36.780Z,80.58
2022-11-29T12:16:43.096Z,80.99
2022-11-29T12:18:51.999Z,80.70
2022-11-29T12:21:01.548Z,80.41
2022-11-29T12:23:21.741Z,80.32
2022-11-29T12:25:29.990Z,80.04
2022-11-29T12:27:34.618Z,79.58
2022-11-29T12:29:39.303Z,78.97
2022-11-29T12:31:59.180Z,78.53
2022-11-29T12:34:22.666Z,78.59
2022-11-29T12:36:39.766Z,78.51
2022-11-29T12:38:58.440Z,77.66
2022-11-29T12:41:17.922Z,77.76
2022-11-29T12:43:34.453Z,77.87
2022-11-29T12:45:45.425Z,77.40
2022-11-29T12:48:02.116Z,77.21
2022-11-29T12:50:19.469Z,76.68
2022-11-29T12:52:33.315Z,76.87
2022-11-29T12:54:55.375Z,76.78
2022-11-29T12:57:10.465Z,76.43
2022-11-29T12:59:30.915Z,75.82
2022-11-29T13:01:47.267Z,75.20
2022-11-29T13:03:58.850Z,75.50
2022-11-29T13:06:14.615Z,75.22
2022-11-29T13:08:45.016Z,74.41
2022-11-29T13:11:06.208Z,74.33
2022-11-29T13:13:21.016Z,74.05
2022-11-29T13:15:35.709Z,74.33
2022-11-29T13:17:45.811Z,74.54
2022-11-29T13:19:55.471Z,74.99
2022-11-29T13:22:09.321Z,75.20
2022-11-29T13:24:19.428Z,76.28
2022-11-29T13:26:27.145Z,76.07
2022-11-29T13:28:35.329Z,77.55
2022-11-29T13:30:41.026Z,76.81
2022-11-29T13:32:53.896Z,75.65
2022-11-29T13:35:01.973Z,75.01
2022-11-29T13:37:18.625Z,74.61
2022-11-29T13:39:38.632Z,74.58
2022-11-29T13:41:53.941Z,74.68
2022-11-29T13:44:04.413Z,74.68
2022-11-29T13:46:23.684Z,75.13
2022-11-29T13:48:47.336Z,75.23
2022-11-29T13:50:52.043Z,75.17
2022-11-29T13:53:05.344Z,74.31
2022-11-29T13:55:23.818Z,74.86
2022-11-29T13:57:28.449Z,74.97
2022-11-29T13:59:35.960Z,75.25
2022-11-29T14:01:49.261Z,75.79
2022-11-29T14:04:04.790Z,75.90
2022-11-29T14:06:16.180Z,75.78
2022-11-29T14:08:42.516Z,75.93
2022-11-29T14:10:55.256Z,76.15
2022-11-29T14:13:00.229Z,76.29
2022-11-29T14:15:17.573Z,76.12
2022-11-29T14:17:45.909Z,76.36
2022-11-29T14:19:50.650Z,77.46
2022-11-29T14:22:29.326Z,78.73
2022-11-29T14:24:54.861Z,77.68
2022-11-29T14:27:38.621Z,77.94
2022-11-29T14:29:56.116Z,78.04
2022-11-29T14:32:01.277Z,78.24
2022-11-29T14:34:12.441Z,78.95
2022-11-29T14:36:31.605Z,79.56
2022-11-29T14:38:44.643Z,79.75
2022-11-29T14:40:57.546Z,80.20
2022-11-29T14:43:14.159Z,80.46
2022-11-29T14:45:28.566Z,80.62
2022-11-29T14:47:36.358Z,80.69
2022-11-29T14:49:44.676Z,81.15
2022-11-29T14:52:08.764Z,81.13
2022-11-29T14:54:18.251Z,81.16
2022-11-29T14:56:40.503Z,81.51
2022-11-29T14:58:46.015Z,81.84
2022-11-29T15:00:58.710Z,82.04
2022-11-29T15:03:13.149Z,82.19
2022-11-29T15:05:21.514Z,82.09
2022-11-29T15:07:31.747Z,82.28
2022-11-29T15:09:38.240Z,82.35
2022-11-29T15:11:57.590Z,82.59
2022-11-29T15:14:07.180Z,82.75
2022-11-29T15:16:27.396Z,82.92
2022-11-29T15:18:51.207Z,83.09
2022-11-29T15:21:08.848Z,83.61
2022-11-29T15:23:17.434Z,83.61
2022-11-29T15:25:23.867Z,83.62
2022-11-29T15:27:28.962Z,83.71
2022-11-29T15:29:33.647Z,84.35
2022-11-29T15:31:40.816Z,84.64
2022-11-29T15:33:48.820Z,84.31
2022-11-29T15:35:55.348Z,84.35
2022-11-29T15:38:00.049Z,84.54
2022-11-29T15:40:10.253Z,84.60
2022-11-29T15:42:15.818Z,84.65
2022-11-29T15:44:23.173Z,84.92
2022-11-29T15:46:29.533Z,85.04
2022-11-29T15:48:34.467Z,85.09
2022-11-29T15:50:43.290Z,85.14
2022-11-29T15:52:48.005Z,85.44
2022-11-29T15:54:59.479Z,85.45
2022-11-29T15:57:10.528Z,85.86
2022-11-29T15:59:26.071Z,85.97
2022-11-29T16:01:31.957Z,85.62
2022-11-29T16:03:41.137Z,86.41
2022-11-29T16:05:52.724Z,86.02
2022-11-29T16:08:01.152Z,86.44
2022-11-29T16:10:12.805Z,86.37
2022-11-29T16:12:19.212Z,86.58
2022-11-29T16:14:26.566Z,87.12
2022-11-29T16:16:32.574Z,86.91
2022-11-29T16:18:40.132Z,87.20
2022-11-29T16:20:57.921Z,87.35
2022-11-29T16:23:13.943Z,87.53
2022-11-29T16:25:20.058Z,87.58
2022-11-29T16:27:25.094Z,87.66
2022-11-29T16:29:35.181Z,87.70
2022-11-29T16:31:41.396Z,87.61
2022-11-29T16:33:47.947Z,87.85
2022-11-29T16:36:02.984Z,88.32
2022-11-29T16:38:20.996Z,88.31
2022-11-29T16:40:30.650Z,88.19
2022-11-29T16:42:35.501Z,88.06
2022-11-29T16:45:03.156Z,88.08
2022-11-29T16:47:19.053Z,88.10
2022-11-29T16:49:35.983Z,88.15
2022-11-29T16:51:46.365Z,88.35
2022-11-29T16:53:55.368Z,88.66
2022-11-29T16:56:00.586Z,88.40
2022-11-29T16:58:05.987Z,88.25
2022-11-29T17:00:26.013Z,88.83
2022-11-29T17:02:31.328Z,88.71
2022-11-29T17:04:40.283Z,88.60
2022-11-29T17:06:46.350Z,88.41
2022-11-29T17:08:54.473Z,89.06
2022-11-29T17:11:00.749Z,88.84
2022-11-29T17:13:06.168Z,88.79
2022-11-29T17:15:12.516Z,88.96
2022-11-29T17:17:19.537Z,89.04
2022-11-29T17:19:30.674Z,89.29
2022-11-29T17:21:36.501Z,88.90
2022-11-29T17:23:42.657Z,88.90
2022-11-29T17:25:55.467Z,88.95
2022-11-29T17:28:01.009Z,88.79
2022-11-29T17:30:07.975Z,89.07
2022-11-29T17:32:13.293Z,89.03
2022-11-29T17:34:20.330Z,89.29
2022-11-29T17:36:25.840Z,89.24
2022-11-29T17:38:30.803Z,89.49
2022-11-29T17:40:37.701Z,89.38
2022-11-29T17:42:43.455Z,89.50
2022-11-29T17:44:48.857Z,90.01
2022-11-29T17:46:54.919Z,89.55
2022-11-29T17:49:04.600Z,89.74
2022-11-29T17:51:29.162Z,89.88
2022-11-29T17:53:35.932Z,89.90
2022-11-29T17:55:41.813Z,89.88
2022-11-29T17:57:47.568Z,90.32
2022-11-29T17:59:53.551Z,90.13
2022-11-29T18:01:58.255Z,90.39
2022-11-29T18:04:06.313Z,90.61
2022-11-29T18:06:13.561Z,90.62
2022-11-29T18:08:20.065Z,90.67
2022-11-29T18:10:26.593Z,91.01
2022-11-29T18:12:32.066Z,91.01
2022-11-29T18:14:38.128Z,91.03
2022-11-29T18:16:44.571Z,91.30
2022-11-29T18:18:54.392Z,91.16
2022-11-29T18:21:04.044Z,91.35
2022-11-29T18:23:10.744Z,91.43
2022-11-29T18:25:38.244Z,91.45
2022-11-29T18:27:43.267Z,91.59
2022-11-29T18:29:48.712Z,91.57
2022-11-29T18:31:55.624Z,91.96
2022-11-29T18:34:03.226Z,91.81
2022-11-29T18:36:11.008Z,91.55
2022-11-29T18:38:17.166Z,91.75
2022-11-29T18:40:26.078Z,91.69
2022-11-29T18:42:31.550Z,92.19
2022-11-29T18:44:40.139Z,92.19
2022-11-29T18:46:48.219Z,92.30
2022-11-29T18:48:54.308Z,92.31
2022-11-29T18:51:06.205Z,92.25
2022-11-29T18:53:13.085Z,92.17
2022-11-29T18:55:19.700Z,92.22
2022-11-29T18:57:26.224Z,92.43
2022-11-29T18:59:32.118Z,92.48
2022-11-29T19:01:39.792Z,92.50
2022-11-29T19:03:48.434Z,92.82
2022-11-29T19:05:57.930Z,92.56
2022-11-29T19:08:09.243Z,92.75
2022-11-29T19:10:16.333Z,92.63
2022-11-29T19:12:23.010Z,92.75
2022-11-29T19:14:35.200Z,92.89
2022-11-29T19:16:43.279Z,92.76
2022-11-29T19:18:53.020Z,92.97
2022-11-29T19:21:10.366Z,93.00
2022-11-29T19:23:17.626Z,92.75
2022-11-29T19:25:23.681Z,92.83
2022-11-29T19:27:31.420Z,92.51
2022-11-29T19:29:39.818Z,92.73
2022-11-29T19:31:51.663Z,92.68
2022-11-29T19:34:04.417Z,92.56
2022-11-29T19:36:15.569Z,92.57
2022-11-29T19:38:22.297Z,92.57
2022-11-29T19:40:31.634Z,92.65
2022-11-29T19:42:37.418Z,92.39
2022-11-29T19:45:15.216Z,92.22
2022-11-29T19:47:13.373Z,92.30
2022-11-29T19:49:20.153Z,92.19
2022-11-29T19:51:28.336Z,92.16
2022-11-29T19:53:35.083Z,92.16
2022-11-29T19:55:44.273Z,92.29
2022-11-29T19:57:51.630Z,92.32
2022-11-29T20:00:00.672Z,92.14
2022-11-29T20:02:06.802Z,91.96
2022-11-29T20:04:14.357Z,91.98
2022-11-29T20:06:21.192Z,91.80
2022-11-29T20:08:28.900Z,91.76
2022-11-29T20:10:35.734Z,91.51
2022-11-29T20:12:43.056Z,91.72
2022-11-29T20:14:49.155Z,91.87
2022-11-29T20:16:55.230Z,91.59
2022-11-29T20:19:03.023Z,91.57
2022-11-29T20:21:11.479Z,91.35
2022-11-29T20:23:18.068Z,91.47
2022-11-29T20:25:24.347Z,91.66
2022-11-29T20:27:32.528Z,91.75
2022-11-29T20:29:39.350Z,91.79
2022-11-29T20:31:50.711Z,91.36
2022-11-29T20:33:58.159Z,91.28
2022-11-29T20:36:14.139Z,91.30
2022-11-29T20:38:31.499Z,91.39
2022-11-29T20:40:52.802Z,91.57
2022-11-29T20:43:15.714Z,91.20
2022-11-29T20:45:23.796Z,91.20
2022-11-29T20:47:40.952Z,91.47
2022-11-29T20:49:48.554Z,91.49
2022-11-29T20:52:02.951Z,94.16
2022-11-29T20:54:12.955Z,92.85
2022-11-29T20:56:19.328Z,91.95
2022-11-29T20:58:25.708Z,91.85
2022-11-29T21:00:32.204Z,91.29
2022-11-29T21:02:38.171Z,90.89
2022-11-29T21:04:44.452Z,90.98
2022-11-29T21:06:50.050Z,90.94
2022-11-29T21:08:55.357Z,90.24
2022-11-29T21:11:06.719Z,90.69
2022-11-29T21:13:14.661Z,90.63
2022-11-29T21:15:21.290Z,90.49
2022-11-29T21:17:33.193Z,90.43
2022-11-29T21:19:40.389Z,90.36
2022-11-29T21:21:57.753Z,89.99
2022-11-29T21:24:12.177Z,89.88
2022-11-29T21:26:20.383Z,89.82
2022-11-29T21:28:35.029Z,89.76
2022-11-29T21:30:41.163Z,89.84
2022-11-29T21:32:47.172Z,90.07
2022-11-29T21:34:52.574Z,90.03
2022-11-29T21:36:59.163Z,89.98
2022-11-29T21:39:05.418Z,90.15
2022-11-29T21:41:11.124Z,90.02
2022-11-29T21:43:16.063Z,89.82
2022-11-29T21:45:21.130Z,89.51
2022-11-29T21:47:26.117Z,89.28
2022-11-29T21:49:30.861Z,89.18
2022-11-29T21:51:35.863Z,89.33
2022-11-29T21:53:41.372Z,89.46
2022-11-29T21:55:46.062Z,89.03
2022-11-29T21:57:50.696Z,89.04
2022-11-29T21:59:55.336Z,89.18
2022-11-29T22:02:00.300Z,88.83
2022-11-29T22:04:05.336Z,88.83
2022-11-29T22:06:12.587Z,89.22
2022-11-29T22:08:17.276Z,88.79
2022-11-29T22:10:21.915Z,89.20
2022-11-29T22:12:34.076Z,89.17
2022-11-29T22:14:39.522Z,88.96
2022-11-29T22:16:46.112Z,89.00
2022-11-29T22:18:50.781Z,89.50
2022-11-29T22:20:55.504Z,89.46
2022-11-29T22:23:00.207Z,89.94
2022-11-29T22:25:08.979Z,89.74
2022-11-29T22:27:13.732Z,89.70
2022-11-29T22:29:18.533Z,89.98
2022-11-29T22:31:23.339Z,89.91
2022-11-29T22:33:28.018Z,89.52
2022-11-29T22:35:32.763Z,89.73
2022-11-29T22:37:37.463Z,90.11
2022-11-29T22:39:42.073Z,89.92
2022-11-29T22:41:52.291Z,90.26
2022-11-29T22:43:58.911Z,90.32
2022-11-29T22:46:08.129Z,90.37
2022-11-29T22:48:12.822Z,89.93
2022-11-29T22:50:17.641Z,90.27
2022-11-29T22:52:22.423Z,90.45
2022-11-29T22:54:27.263Z,89.93
2022-11-29T22:56:33.854Z,90.38
2022-11-29T22:58:39.060Z,90.04
2022-11-29T23:00:43.819Z,90.28
2022-11-29T23:02:48.654Z,90.05
2022-11-29T23:04:53.258Z,89.60
2022-11-29T23:06:57.885Z,90.11
2022-11-29T23:09:07.148Z,89.90
2022-11-29T23:11:13.601Z,89.56
2022-11-29T23:13:18.221Z,89.94
2022-11-29T23:15:22.849Z,89.62
2022-11-29T23:17:27.474Z,89.50
2022-11-29T23:19:32.124Z,89.42
2022-11-29T23:21:38.522Z,89.48
2022-11-29T23:23:44.073Z,89.53
2022-11-29T23:25:51.667Z,89.43
2022-11-29T23:27:57.142Z,89.44
2022-11-29T23:30:01.709Z,89.25
2022-11-29T23:32:06.478Z,89.27
2022-11-29T23:34:12.310Z,89.99
2022-11-29T23:36:17.382Z,89.96
2022-11-29T23:38:22.072Z,90.16
2022-11-29T23:40:26.768Z,90.42
2022-11-29T23:42:31.421Z,90.48
2022-11-29T23:44:36.071Z,90.27
2022-11-29T23:46:40.693Z,90.54
2022-11-29T23:48:45.675Z,90.99
2022-11-29T23:50:50.387Z,91.38
2022-11-29T23:52:56.191Z,91.26
2022-11-29T23:55:00.840Z,91.43
2022-11-29T23:57:05.600Z,91.21
2022-11-29T23:59:10.841Z,91.55
